Time;durP1;ratioP1;P1;durP2;ratioP2;P2;SDS_P1;SDS_P2;PMS_P1;PMS_P2;Temp;Humidity;BMP_temperature;BMP_pressure;BME280_temperature;BME280_humidity;BME280_pressure;Samples;Min_cycle;Max_cycle;Signal;HPM_P1;HPM_P2
2023/07/04 00:01:15;;;;;;;1999.90;999.90;;;13.00;99.90;;;;;;4917456;29;20055;-70
2023/07/04 00:03:44;;;;;;;1999.90;999.90;;;13.00;99.90;;;;;;4917946;29;20060;-70
2023/07/04 00:06:13;;;;;;;1999.90;999.90;;;13.00;99.90;;;;;;4916686;29;20052;-69
2023/07/04 00:08:39;;;;;;;1999.90;999.90;;;13.00;99.90;;;;;;4917659;29;20143;-70
2023/07/04 00:11:06;;;;;;;1999.90;999.90;;;13.00;99.90;;;;;;4917158;29;20541;-70
2023/07/04 00:13:34;;;;;;;1999.90;999.90;;;13.00;99.90;;;;;;4917542;29;20044;-70
2023/07/04 00:16:00;;;;;;;1999.90;999.90;;;13.00;99.90;;;;;;4918127;29;20071;-69
2023/07/04 00:18:28;;;;;;;1999.90;999.90;;;13.00;99.90;;;;;;4917266;29;20087;-69
2023/07/04 00:20:56;;;;;;;1999.90;999.90;;;13.00;99.90;;;;;;4917320;29;20056;-69
2023/07/04 00:23:27;;;;;;;1999.90;999.90;;;13.00;99.90;;;;;;4917306;29;20048;-69
2023/07/04 00:25:54;;;;;;;1999.90;999.90;;;13.00;99.90;;;;;;4917731;29;20127;-70
2023/07/04 00:28:21;;;;;;;1999.90;999.90;;;13.00;99.90;;;;;;4917277;29;20371;-70
2023/07/04 00:30:51;;;;;;;1999.90;999.90;;;13.00;99.90;;;;;;4917252;29;20048;-71
2023/07/04 00:33:22;;;;;;;1999.90;999.90;;;13.00;99.90;;;;;;4917771;29;20511;-71
2023/07/04 00:35:48;;;;;;;1999.90;999.90;;;13.00;99.90;;;;;;4917214;29;20144;-70
2023/07/04 00:38:15;;;;;;;1999.90;999.90;;;13.00;99.90;;;;;;4920576;29;20118;-71
2023/07/04 00:40:41;;;;;;;1999.90;999.90;;;13.00;99.90;;;;;;4921344;29;20056;-71
2023/07/04 00:43:12;;;;;;;1999.90;999.90;;;13.00;99.90;;;;;;4921627;29;20077;-70
2023/07/04 00:45:55;;;;;;;1999.90;999.90;;;13.00;99.90;;;;;;4920821;29;20143;-70
2023/07/04 00:48:23;;;;;;;1999.90;999.90;;;12.90;99.90;;;;;;4920377;29;20389;-71
2023/07/04 00:50:50;;;;;;;1999.90;999.90;;;12.90;99.90;;;;;;4919832;29;20075;-71
2023/07/04 00:53:16;;;;;;;1999.90;999.90;;;12.90;99.90;;;;;;4920635;29;20052;-71
2023/07/04 00:55:47;;;;;;;1999.90;999.90;;;12.90;99.90;;;;;;4920750;29;20040;-71
2023/07/04 00:58:15;;;;;;;1999.90;999.90;;;12.90;99.90;;;;;;4920949;29;20484;-71
2023/07/04 01:00:41;;;;;;;1999.90;999.90;;;12.80;99.90;;;;;;4920592;29;20127;-70
2023/07/04 01:03:14;;;;;;;1999.90;999.90;;;12.80;99.90;;;;;;4920807;29;20048;-71
2023/07/04 01:05:48;;;;;;;1999.90;999.90;;;12.80;99.90;;;;;;4920876;29;20056;-71
2023/07/04 01:08:32;;;;;;;1999.90;999.90;;;12.80;99.90;;;;;;4919606;29;20509;-71
2023/07/04 01:11:01;;;;;;;1999.90;999.90;;;12.70;99.90;;;;;;4920460;29;20142;-70
2023/07/04 01:13:38;;;;;;;1999.90;999.90;;;12.70;99.90;;;;;;4920291;29;20048;-71
2023/07/04 01:16:09;;;;;;;1999.90;999.90;;;12.70;99.90;;;;;;4920331;29;20135;-70
2023/07/04 01:18:37;;;;;;;1999.90;999.90;;;12.70;99.90;;;;;;4920256;29;20163;-70
2023/07/04 01:21:05;;;;;;;1999.90;999.90;;;12.70;99.90;;;;;;4919252;29;20095;-71
2023/07/04 01:23:59;;;;;;;1999.90;999.90;;;12.70;99.90;;;;;;4920671;29;20055;-71
2023/07/04 01:26:43;;;;;;;1999.90;999.90;;;12.60;99.90;;;;;;4919987;29;20466;-70
2023/07/04 01:29:13;;;;;;;1999.90;999.90;;;12.60;99.90;;;;;;4920189;29;20121;-70
2023/07/04 01:31:40;;;;;;;1999.90;999.90;;;12.60;99.90;;;;;;4920066;29;20131;-70
2023/07/04 01:34:08;;;;;;;1999.90;999.90;;;12.60;99.90;;;;;;4919720;29;20493;-71
2023/07/04 01:36:37;;;;;;;1999.90;999.90;;;12.60;99.90;;;;;;4920878;29;20056;-71
2023/07/04 01:39:04;;;;;;;1999.90;999.90;;;12.60;99.90;;;;;;4919865;29;20055;-71
2023/07/04 01:41:30;;;;;;;1999.90;999.90;;;12.60;99.90;;;;;;4920368;29;20377;-71
2023/07/04 01:44:03;;;;;;;1999.90;999.90;;;12.50;99.90;;;;;;4919845;29;20048;-71
2023/07/04 01:46:29;;;;;;;1999.90;999.90;;;12.50;99.90;;;;;;4919764;29;20088;-71
2023/07/04 01:48:55;;;;;;;1999.90;999.90;;;12.50;99.90;;;;;;4919825;29;20134;-71
2023/07/04 01:51:39;;;;;;;1999.90;999.90;;;12.50;99.90;;;;;;4919648;29;20044;-71
2023/07/04 01:54:06;;;;;;;1999.90;999.90;;;12.50;99.90;;;;;;4920482;29;20385;-71
2023/07/04 01:56:36;;;;;;;1999.90;999.90;;;12.50;99.90;;;;;;4902630;29;20059;-71
2023/07/04 01:59:02;;;;;;;1999.90;999.90;;;12.50;99.90;;;;;;4919812;29;20055;-70
2023/07/04 02:01:27;;;;;;;1999.90;999.90;;;12.50;99.90;;;;;;4919467;29;20397;-71
2023/07/04 02:03:53;;;;;;;1999.90;999.90;;;12.50;99.90;;;;;;4919982;29;20376;-71
2023/07/04 02:06:19;;;;;;;1999.90;999.90;;;12.50;99.90;;;;;;4919709;29;20052;-71
2023/07/04 02:08:45;;;;;;;1999.90;999.90;;;12.60;99.90;;;;;;4903466;29;20553;-71
2023/07/04 02:11:12;;;;;;;1999.90;999.90;;;12.60;99.90;;;;;;4918171;29;20067;-71
2023/07/04 02:13:38;;;;;;;1999.90;999.90;;;12.60;99.90;;;;;;4919167;29;20044;-71
2023/07/04 02:16:04;;;;;;;1999.90;999.90;;;12.60;99.90;;;;;;4919281;29;20052;-71
2023/07/04 02:18:30;;;;;;;1999.90;999.90;;;12.60;99.90;;;;;;4919637;29;20135;-71
2023/07/04 02:20:56;;;;;;;1999.90;999.90;;;12.60;99.90;;;;;;4919198;29;20123;-72
2023/07/04 02:23:22;;;;;;;1999.90;999.90;;;12.60;99.90;;;;;;4919100;29;20046;-71
2023/07/04 02:25:48;;;;;;;1999.90;999.90;;;12.60;99.90;;;;;;4901944;29;20174;-72
2023/07/04 02:28:14;;;;;;;1999.90;999.90;;;12.70;99.90;;;;;;4917764;29;20052;-71
2023/07/04 02:30:40;;;;;;;1999.90;999.90;;;12.70;99.90;;;;;;4919010;29;20127;-71
2023/07/04 02:33:06;;;;;;;1999.90;999.90;;;12.70;99.90;;;;;;4917769;29;20135;-71
2023/07/04 02:35:31;;;;;;;1999.90;999.90;;;12.70;99.90;;;;;;4918764;29;20143;-71
2023/07/04 02:37:57;;;;;;;1999.90;999.90;;;12.70;99.90;;;;;;4919384;29;20096;-71
2023/07/04 02:40:23;;;;;;;1999.90;999.90;;;12.70;99.90;;;;;;4918848;29;20396;-72
2023/07/04 02:42:49;;;;;;;1999.90;999.90;;;12.70;99.90;;;;;;4919306;29;20048;-72
2023/07/04 02:45:15;;;;;;;1999.90;999.90;;;12.70;99.90;;;;;;4918729;29;20400;-72
2023/07/04 02:47:41;;;;;;;1999.90;999.90;;;12.70;99.90;;;;;;4919426;29;20139;-71
2023/07/04 02:50:07;;;;;;;1999.90;999.90;;;12.70;99.90;;;;;;4901657;29;20076;-72
2023/07/04 02:52:33;;;;;;;1999.90;999.90;;;12.70;99.90;;;;;;4918812;29;20040;-72
2023/07/04 02:54:58;;;;;;;1999.90;999.90;;;12.80;99.90;;;;;;4918508;29;20044;-72
2023/07/04 02:57:24;;;;;;;1999.90;999.90;;;12.80;99.90;;;;;;4918548;29;20182;-72
2023/07/04 02:59:50;;;;;;;1999.90;999.90;;;12.80;99.90;;;;;;4917837;29;20048;-72
2023/07/04 03:02:15;;;;;;;1999.90;999.90;;;12.80;99.90;;;;;;4918466;29;20602;-72
2023/07/04 03:04:41;;;;;;;1999.90;999.90;;;12.80;99.90;;;;;;4919219;29;20059;-72
2023/07/04 03:07:07;;;;;;;1999.90;999.90;;;12.90;99.90;;;;;;4918906;29;20055;-72
2023/07/04 03:09:33;;;;;;;1999.90;999.90;;;12.90;99.90;;;;;;4917354;29;20059;-72
2023/07/04 03:11:59;;;;;;;1999.90;999.90;;;12.90;99.90;;;;;;4917164;29;20048;-72
2023/07/04 03:14:25;;;;;;;1999.90;999.90;;;12.90;99.90;;;;;;4917905;29;20080;-72
2023/07/04 03:16:51;;;;;;;1999.90;999.90;;;12.90;99.90;;;;;;4918071;29;20098;-72
2023/07/04 03:19:17;;;;;;;1999.90;999.90;;;12.90;99.90;;;;;;4917437;29;20051;-72
2023/07/04 03:21:43;;;;;;;1999.90;999.90;;;13.00;99.90;;;;;;4918084;29;20044;-72
2023/07/04 03:24:09;;;;;;;1999.90;999.90;;;13.00;99.90;;;;;;4917012;29;20080;-72
2023/07/04 03:26:35;;;;;;;1999.90;999.90;;;13.00;99.90;;;;;;4916798;29;20048;-71
2023/07/04 03:29:01;;;;;;;1999.90;999.90;;;13.00;99.90;;;;;;4917925;29;20056;-71
2023/07/04 03:31:27;;;;;;;1999.90;999.90;;;13.00;99.90;;;;;;4917946;29;20374;-71
2023/07/04 03:33:53;;;;;;;1999.90;999.90;;;13.10;99.90;;;;;;4917831;29;20119;-72
2023/07/04 03:36:19;;;;;;;1999.90;999.90;;;13.10;99.90;;;;;;4916396;29;20052;-72
2023/07/04 03:38:45;;;;;;;1999.90;999.90;;;13.10;99.90;;;;;;4917842;29;20056;-72
2023/07/04 03:41:11;;;;;;;1999.90;999.90;;;13.10;99.90;;;;;;4918331;29;20390;-71
2023/07/04 03:43:36;;;;;;;1999.90;999.90;;;13.20;99.90;;;;;;4916798;29;20056;-72
2023/07/04 03:46:04;;;;;;;1999.90;999.90;;;13.20;99.90;;;;;;4917235;29;20055;-72
2023/07/04 03:48:30;;;;;;;1999.90;999.90;;;13.20;99.90;;;;;;4917853;29;20517;-71
2023/07/04 03:50:55;;;;;;;1999.90;999.90;;;13.20;99.90;;;;;;4917953;29;20130;-72
2023/07/04 03:53:21;;;;;;;1999.90;999.90;;;13.20;99.90;;;;;;4917149;29;20381;-72
2023/07/04 03:55:49;;;;;;;1999.90;999.90;;;13.20;99.90;;;;;;4917243;29;20135;-72
2023/07/04 03:58:17;;;;;;;1999.90;999.90;;;13.30;99.90;;;;;;4917568;29;20044;-72
2023/07/04 04:00:46;;;;;;;1999.90;999.90;;;13.30;99.90;;;;;;4916550;29;20139;-72
2023/07/04 04:03:12;;;;;;;1999.90;999.90;;;13.20;99.90;;;;;;4916551;29;20467;-71
2023/07/04 04:05:39;;;;;;;1999.90;999.90;;;13.30;99.90;;;;;;4916583;29;20366;-71
2023/07/04 04:08:05;;;;;;;1999.90;999.90;;;13.30;99.90;;;;;;4916506;29;20060;-71
2023/07/04 04:10:30;;;;;;;1999.90;999.90;;;13.30;99.90;;;;;;4917400;29;20100;-71
2023/07/04 04:12:56;;;;;;;1999.90;999.90;;;13.30;99.90;;;;;;4917859;29;20366;-72
2023/07/04 04:15:22;;;;;;;1999.90;999.90;;;13.30;99.90;;;;;;4917305;29;20135;-71
2023/07/04 04:17:48;;;;;;;1999.90;999.90;;;13.30;99.90;;;;;;4918080;29;20048;-72
2023/07/04 04:20:14;;;;;;;1999.90;999.90;;;13.30;99.90;;;;;;4916703;29;20441;-71
2023/07/04 04:22:45;;;;;;;1999.90;999.90;;;13.30;99.90;;;;;;4917358;29;20477;-71
2023/07/04 04:25:15;;;;;;;1999.90;999.90;;;13.30;99.90;;;;;;4916889;29;20477;-71
2023/07/04 04:27:41;;;;;;;1999.90;999.90;;;13.30;99.90;;;;;;4916609;29;20556;-71
2023/07/04 04:30:10;;;;;;;1999.90;999.90;;;13.30;99.90;;;;;;4916298;29;20044;-72
2023/07/04 04:32:37;;;;;;;1999.90;999.90;;;13.40;99.90;;;;;;4917198;29;20127;-72
2023/07/04 04:35:03;;;;;;;1999.90;999.90;;;13.30;99.90;;;;;;4916112;29;20087;-72
2023/07/04 04:37:30;;;;;;;1999.90;999.90;;;13.30;99.90;;;;;;4916937;29;20484;-72
2023/07/04 04:39:56;;;;;;;1999.90;999.90;;;13.40;99.90;;;;;;4917183;29;20047;-71
2023/07/04 04:42:23;;;;;;;1999.90;999.90;;;13.40;99.90;;;;;;4915963;29;20567;-72
2023/07/04 04:44:53;;;;;;;1999.90;999.90;;;13.30;99.90;;;;;;4900741;29;20051;-72
2023/07/04 04:47:23;;;;;;;1999.90;999.90;;;13.40;99.90;;;;;;4917605;29;20155;-72
2023/07/04 04:50:07;;;;;;;1999.90;999.90;;;13.40;99.90;;;;;;4916955;29;20461;-71
2023/07/04 04:52:33;;;;;;;1999.90;999.90;;;13.40;99.90;;;;;;4917051;29;20169;-71
2023/07/04 04:55:03;;;;;;;1999.90;999.90;;;13.40;99.90;;;;;;4917054;29;20500;-72
2023/07/04 04:57:29;;;;;;;1999.90;999.90;;;13.50;99.90;;;;;;4916118;29;20107;-71
2023/07/04 04:59:59;;;;;;;1999.90;999.90;;;13.50;99.90;;;;;;4917007;29;20159;-71
2023/07/04 05:02:25;;;;;;;1999.90;999.90;;;13.50;99.90;;;;;;4915479;29;20505;-71
2023/07/04 05:04:51;;;;;;;1999.90;999.90;;;13.60;99.90;;;;;;4916954;29;20179;-71
2023/07/04 05:07:18;;;;;;;1999.90;999.90;;;13.60;99.90;;;;;;4917432;29;20135;-71
2023/07/04 05:09:43;;;;;;;1999.90;999.90;;;13.60;99.90;;;;;;4916877;29;20056;-71
2023/07/04 05:12:09;;;;;;;1999.90;999.90;;;13.70;99.90;;;;;;4917306;29;20087;-72
2023/07/04 05:14:35;;;;;;;1999.90;999.90;;;13.70;99.90;;;;;;4916875;29;20349;-71
2023/07/04 05:17:01;;;;;;;1999.90;999.90;;;13.70;99.90;;;;;;4917254;29;20062;-72
2023/07/04 05:19:27;;;;;;;1999.90;999.90;;;13.70;99.90;;;;;;4917100;29;20382;-71
2023/07/04 05:21:52;;;;;;;1999.90;999.90;;;13.70;99.90;;;;;;4917410;29;20492;-72
2023/07/04 05:24:18;;;;;;;1999.90;999.90;;;13.80;99.90;;;;;;4919048;29;20094;-72
2023/07/04 05:26:44;;;;;;;1999.90;999.90;;;13.80;99.90;;;;;;4920142;29;20108;-72
2023/07/04 05:29:09;;;;;;;1999.90;999.90;;;13.80;99.90;;;;;;4919196;29;20157;-74
2023/07/04 05:31:35;;;;;;;1999.90;999.90;;;13.80;99.90;;;;;;4903453;29;20058;-71
2023/07/04 05:34:01;;;;;;;1999.90;999.90;;;13.80;99.90;;;;;;4920453;29;20059;-71
2023/07/04 05:36:29;;;;;;;1999.90;999.90;;;13.80;99.90;;;;;;4918789;29;20119;-71
2023/07/04 05:38:59;;;;;;;1999.90;999.90;;;13.80;99.90;;;;;;4919960;29;20055;-71
2023/07/04 05:41:26;;;;;;;1999.90;999.90;;;13.80;99.90;;;;;;4920168;29;20549;-71
2023/07/04 05:43:54;;;;;;;1999.90;999.90;;;13.90;99.90;;;;;;4918713;29;20040;-71
2023/07/04 05:46:20;;;;;;;1999.90;999.90;;;13.90;99.90;;;;;;4919764;29;20390;-74
2023/07/04 05:48:46;;;;;;;1999.90;999.90;;;13.90;99.90;;;;;;4918597;29;20059;-71
2023/07/04 05:51:14;;;;;;;1999.90;999.90;;;14.00;99.90;;;;;;4919684;29;20052;-71
2023/07/04 05:53:41;;;;;;;1999.90;999.90;;;14.00;99.90;;;;;;4919335;29;20512;-71
2023/07/04 05:56:18;;;;;;;1999.90;999.90;;;14.00;99.90;;;;;;4919647;29;20048;-72
2023/07/04 05:58:51;;;;;;;1999.90;999.90;;;14.10;99.90;;;;;;4919613;29;20048;-71
2023/07/04 06:01:27;;;;;;;1999.90;999.90;;;14.10;99.90;;;;;;4919615;29;20059;-71
2023/07/04 06:03:54;;;;;;;1999.90;999.90;;;14.10;99.90;;;;;;4919503;29;20139;-71
2023/07/04 06:06:25;;;;;;;1999.90;999.90;;;14.10;99.90;;;;;;4918324;29;20055;-72
2023/07/04 06:08:52;;;;;;;1999.90;999.90;;;14.20;99.90;;;;;;4919473;29;20401;-72
2023/07/04 06:11:21;;;;;;;1999.90;999.90;;;14.20;99.90;;;;;;4918440;29;20048;-71
2023/07/04 06:13:47;;;;;;;1999.90;999.90;;;14.30;99.90;;;;;;4919137;29;20046;-71
2023/07/04 06:16:13;;;;;;;1999.90;999.90;;;14.30;99.90;;;;;;4919794;29;20055;-73
2023/07/04 06:18:39;;;;;;;1999.90;999.90;;;14.30;99.90;;;;;;4919148;29;20131;-71
2023/07/04 06:21:13;;;;;;;1999.90;999.90;;;14.40;99.90;;;;;;4919181;29;20048;-72
2023/07/04 06:23:40;;;;;;;1999.90;999.90;;;14.40;99.90;;;;;;4919040;29;20087;-71
2023/07/04 06:26:07;;;;;;;1999.90;999.90;;;14.50;99.90;;;;;;4919968;29;20417;-71
2023/07/04 06:28:33;;;;;;;1999.90;999.90;;;14.50;99.90;;;;;;4919148;29;20052;-71
2023/07/04 06:31:12;;;;;;;1999.90;999.90;;;14.50;99.90;;;;;;4919012;29;20560;-71
2023/07/04 06:33:38;;;;;;;1999.90;999.90;;;14.60;99.90;;;;;;4917027;29;20048;-71
2023/07/04 06:36:11;;;;;;;1999.90;999.90;;;14.60;99.90;;;;;;4917588;29;20060;-71
2023/07/04 06:38:37;;;;;;;1999.90;999.90;;;14.60;99.90;;;;;;4919507;29;20087;-71
2023/07/04 06:41:08;;;;;;;1999.90;999.90;;;14.70;99.90;;;;;;4918885;29;20075;-71
2023/07/04 06:43:34;;;;;;;1999.90;999.90;;;14.80;99.90;;;;;;4918840;29;20370;-72
2023/07/04 06:46:01;;;;;;;1999.90;999.90;;;14.80;99.90;;;;;;4918046;29;20290;-72
2023/07/04 06:48:28;;;;;;;1999.90;999.90;;;14.80;99.90;;;;;;4917667;29;20052;-71
2023/07/04 06:51:06;;;;;;;1999.90;999.90;;;14.80;99.90;;;;;;4918479;29;20048;-71
2023/07/04 06:53:34;;;;;;;1999.90;999.90;;;14.90;99.90;;;;;;4918946;29;20088;-72
2023/07/04 06:56:08;;;;;;;1999.90;999.90;;;14.90;99.90;;;;;;4918551;29;20135;-72
2023/07/04 06:58:36;;;;;;;1999.90;999.90;;;14.90;99.90;;;;;;4918443;29;20048;-75
2023/07/04 07:01:03;;;;;;;1999.90;999.90;;;15.00;99.90;;;;;;4917408;29;20052;-74
2023/07/04 07:03:30;;;;;;;1999.90;999.90;;;15.00;99.90;;;;;;4918170;29;20382;-72
2023/07/04 07:05:56;;;;;;;1999.90;999.90;;;15.00;99.90;;;;;;4918178;29;20083;-74
2023/07/04 07:08:22;;;;;;;1999.90;999.90;;;15.10;99.90;;;;;;4918109;29;20090;-72
2023/07/04 07:10:56;;;;;;;1999.90;999.90;;;15.10;99.90;;;;;;4917114;29;20052;-71
2023/07/04 07:13:22;;;;;;;1999.90;999.90;;;15.10;99.90;;;;;;4918130;29;20042;-71
2023/07/04 07:15:48;;;;;;;1999.90;999.90;;;15.20;99.90;;;;;;4918241;29;20052;-72
2023/07/04 07:18:15;;;;;;;1999.90;999.90;;;15.10;99.90;;;;;;4917172;29;20558;-72
2023/07/04 07:20:41;;;;;;;1999.90;999.90;;;15.10;99.90;;;;;;4918134;29;20056;-72
2023/07/04 07:23:07;;;;;;;1999.90;999.90;;;15.10;99.90;;;;;;4918038;29;20519;-72
2023/07/04 07:25:33;;;;;;;1999.90;999.90;;;15.20;99.90;;;;;;4917069;29;20052;-73
2023/07/04 07:27:58;;;;;;;1999.90;999.90;;;15.20;99.90;;;;;;4917090;29;20552;-72
2023/07/04 07:30:24;;;;;;;1999.90;999.90;;;15.30;99.90;;;;;;4917983;29;20048;-73
2023/07/04 07:32:50;;;;;;;1999.90;999.90;;;15.40;99.90;;;;;;4916377;29;20172;-82
2023/07/04 07:35:16;;;;;;;1999.90;999.90;;;15.40;99.90;;;;;;4916671;29;20059;-72
2023/07/04 07:37:41;;;;;;;1999.90;999.90;;;15.50;99.90;;;;;;4916925;29;20063;-72
2023/07/04 07:40:08;;;;;;;1999.90;999.90;;;15.50;99.90;;;;;;4901363;29;20135;-72
2023/07/04 07:42:36;;;;;;;1999.90;999.90;;;15.50;99.90;;;;;;4918556;29;20409;-72
2023/07/04 07:45:02;;;;;;;1999.90;999.90;;;15.60;99.90;;;;;;4900459;29;20615;-72
2023/07/04 07:47:27;;;;;;;1999.90;999.90;;;15.60;99.90;;;;;;4917590;29;20055;-73
2023/07/04 07:49:53;;;;;;;1999.90;999.90;;;15.60;99.90;;;;;;4917673;29;20177;-73
2023/07/04 07:52:19;;;;;;;1999.90;999.90;;;15.70;99.90;;;;;;4917337;29;20055;-72
2023/07/04 07:54:45;;;;;;;1999.90;999.90;;;15.70;99.90;;;;;;4917554;29;20048;-71
2023/07/04 07:57:10;;;;;;;1999.90;999.90;;;15.70;99.90;;;;;;4917610;29;20070;-74
2023/07/04 07:59:36;;;;;;;1999.90;999.90;;;15.80;99.90;;;;;;4901210;29;20443;-76
2023/07/04 08:02:03;;;;;;;1999.90;999.90;;;15.80;99.90;;;;;;4917102;29;20099;-78
2023/07/04 08:04:29;;;;;;;1999.90;999.90;;;15.80;99.90;;;;;;4916731;29;20131;-73
2023/07/04 08:06:54;;;;;;;1999.90;999.90;;;15.90;99.90;;;;;;4916446;29;20130;-73
2023/07/04 08:09:20;;;;;;;1999.90;999.90;;;15.90;99.90;;;;;;4903021;29;20044;-72
2023/07/04 08:11:48;;;;;;;1999.90;999.90;;;15.90;99.90;;;;;;4917323;29;20102;-73
2023/07/04 08:14:15;;;;;;;1999.90;999.90;;;15.90;99.90;;;;;;4918224;29;20131;-76
2023/07/04 08:16:45;;;;;;;1999.90;999.90;;;16.00;99.90;;;;;;4916569;29;20409;-73
2023/07/04 08:19:11;;;;;;;1999.90;999.90;;;16.00;99.90;;;;;;4917405;29;20052;-75
2023/07/04 08:21:36;;;;;;;1999.90;999.90;;;16.00;99.90;;;;;;4916512;29;20059;-73
2023/07/04 08:24:03;;;;;;;1999.90;999.90;;;16.10;99.90;;;;;;4917358;29;20044;-79
2023/07/04 08:26:29;;;;;;;1999.90;999.90;;;16.10;99.90;;;;;;4900440;29;20048;-73
2023/07/04 08:28:56;;;;;;;1999.90;999.90;;;16.20;99.90;;;;;;4916259;29;20055;-74
2023/07/04 08:31:23;;;;;;;1999.90;999.90;;;16.20;99.90;;;;;;4917902;29;20389;-73
2023/07/04 08:33:49;;;;;;;1999.90;999.90;;;16.30;99.90;;;;;;4917317;29;20048;-74
2023/07/04 08:36:17;;;;;;;1999.90;999.90;;;16.30;99.90;;;;;;4916184;29;20059;-73
2023/07/04 08:38:45;;;;;;;1999.90;999.90;;;16.30;99.90;;;;;;4917270;29;20063;-73
2023/07/04 08:41:27;;;;;;;1999.90;999.90;;;16.30;99.90;;;;;;4916956;29;20497;-73
2023/07/04 08:44:03;;;;;;;1999.90;999.90;;;16.40;99.90;;;;;;4916912;29;20108;-72
2023/07/04 08:46:38;;;;;;;1999.90;999.90;;;16.40;99.90;;;;;;4916941;29;20484;-73
2023/07/04 08:49:07;;;;;;;1999.90;999.90;;;16.40;99.90;;;;;;4916826;29;20048;-72
2023/07/04 08:51:40;;;;;;;1999.90;999.90;;;16.40;99.90;;;;;;4916044;29;20041;-72
2023/07/04 08:54:11;;;;;;;1999.90;999.90;;;16.40;99.90;;;;;;4915935;29;20048;-73
2023/07/04 08:56:38;;;;;;;1999.90;999.90;;;16.50;99.90;;;;;;4916030;29;20131;-73
2023/07/04 08:59:24;;;;;;;1999.90;999.90;;;16.40;99.90;;;;;;4919816;29;20083;-74
2023/07/04 09:02:16;;;;;;;1999.90;999.90;;;16.40;99.90;;;;;;4919704;29;20056;-73
2023/07/04 09:05:04;;;;;;;1999.90;999.90;;;16.40;99.90;;;;;;4920496;29;20456;-72
2023/07/04 09:07:50;;;;;;;1999.90;999.90;;;16.40;99.90;;;;;;4920586;29;20315;-72
2023/07/04 09:10:24;;;;;;;1999.90;999.90;;;16.30;99.90;;;;;;4920562;29;20060;-72
2023/07/04 09:12:50;;;;;;;1999.90;999.90;;;16.40;99.90;;;;;;4920749;29;20146;-73
2023/07/04 09:15:27;;;;;;;1999.90;999.90;;;16.40;99.90;;;;;;4903453;29;20124;-73
2023/07/04 09:18:18;;;;;;;1999.90;999.90;;;16.40;99.90;;;;;;4920322;29;20048;-73
2023/07/04 09:20:50;;;;;;;1999.90;999.90;;;16.50;99.90;;;;;;4920349;29;20052;-73
2023/07/04 09:23:23;;;;;;;1999.90;999.90;;;16.50;99.90;;;;;;4920917;29;20059;-71
2023/07/04 09:25:53;;;;;;;1999.90;999.90;;;16.60;99.90;;;;;;4919233;29;20048;-73
2023/07/04 09:28:18;;;;;;;1999.90;999.90;;;16.70;99.90;;;;;;4920577;29;20056;-72
2023/07/04 09:30:44;;;;;;;1999.90;999.90;;;16.70;99.90;;;;;;4919340;29;20055;-72
2023/07/04 09:33:11;;;;;;;1999.90;999.90;;;16.80;99.90;;;;;;4919030;29;20048;-71
2023/07/04 09:35:37;;;;;;;1999.90;999.90;;;16.90;99.90;;;;;;4918694;29;20064;-74
2023/07/04 09:38:03;;;;;;;1999.90;999.90;;;17.00;99.90;;;;;;4919817;29;20127;-76
2023/07/04 09:40:46;;;;;;;1999.90;999.90;;;17.00;99.90;;;;;;4920447;29;20052;-74
2023/07/04 09:43:27;;;;;;;1999.90;999.90;;;17.10;99.90;;;;;;4920246;29;20040;-75
2023/07/04 09:46:20;;;;;;;1999.90;999.90;;;17.30;99.90;;;;;;4920209;29;20143;-72
2023/07/04 09:48:46;;;;;;;1999.90;999.90;;;17.40;99.90;;;;;;4920257;29;20052;-74
2023/07/04 09:51:18;;;;;;;1999.90;999.90;;;17.40;99.90;;;;;;4918983;29;20056;-73
2023/07/04 09:53:44;;;;;;;1999.90;999.90;;;17.40;99.90;;;;;;4919214;29;20108;-72
2023/07/04 09:56:11;;;;;;;1999.90;999.90;;;17.50;99.90;;;;;;4918919;29;20056;-72
2023/07/04 09:58:37;;;;;;;1999.90;999.90;;;17.60;99.90;;;;;;4919119;29;20055;-72
2023/07/04 10:01:16;;;;;;;1999.90;999.90;;;17.70;99.90;;;;;;4919692;29;20055;-72
2023/07/04 10:03:48;;;;;;;1999.90;999.90;;;17.70;99.90;;;;;;4919807;29;20115;-74
2023/07/04 10:06:29;;;;;;;1999.90;999.90;;;17.70;99.90;;;;;;4903877;29;20052;-74
2023/07/04 10:08:57;;;;;;;1999.90;999.90;;;17.60;99.90;;;;;;4920003;29;20464;-75
2023/07/04 10:11:32;;;;;;;1999.90;999.90;;;17.60;99.90;;;;;;4919542;29;20131;-73
2023/07/04 10:14:07;;;;;;;1999.90;999.90;;;17.60;99.90;;;;;;4919966;29;20099;-71
2023/07/04 10:16:33;;;;;;;1999.90;999.90;;;17.60;99.90;;;;;;4918515;29;20433;-78
2023/07/04 10:19:10;;;;;;;1999.90;999.90;;;17.70;99.90;;;;;;4918466;29;20088;-72
2023/07/04 10:21:48;;;;;;;1999.90;999.90;;;17.80;99.90;;;;;;4918791;29;20394;-74
2023/07/04 10:24:20;;;;;;;1999.90;999.90;;;17.90;99.90;;;;;;4919945;29;20044;-73
2023/07/04 10:26:59;;;;;;;1999.90;999.90;;;18.00;99.90;;;;;;4919139;29;20496;-75
2023/07/04 10:30:06;;;;;;;1999.90;999.90;;;18.10;99.90;;;;;;4919593;29;20437;-76
2023/07/04 10:33:07;;;;;;;1999.90;999.90;;;18.20;99.90;;;;;;4882382;29;20049;-75
2023/07/04 10:35:36;;;;;;;1999.90;999.90;;;18.30;99.90;;;;;;4918862;29;20068;-73
2023/07/04 10:38:22;;;;;;;1999.90;999.90;;;18.20;99.90;;;;;;4917743;29;20048;-72
2023/07/04 10:40:49;;;;;;;1999.90;999.90;;;18.20;99.90;;;;;;4917777;29;20067;-77
2023/07/04 10:43:30;;;;;;;1999.90;999.90;;;18.10;99.90;;;;;;4902107;29;20083;-77
2023/07/04 10:45:58;;;;;;;1999.90;999.90;;;18.20;99.90;;;;;;4918842;29;20044;-73
2023/07/04 10:48:30;;;;;;;1999.90;999.90;;;18.30;99.90;;;;;;4918466;29;20048;-75
2023/07/04 10:51:11;;;;;;;1999.90;999.90;;;18.40;99.90;;;;;;4918644;29;20370;-84
2023/07/04 10:53:37;;;;;;;1999.90;999.90;;;18.50;99.90;;;;;;4919149;29;20401;-76
2023/07/04 10:56:32;;;;;;;1999.90;999.90;;;18.50;99.90;;;;;;4918377;29;20066;-75
2023/07/04 10:59:16;;;;;;;1999.90;999.90;;;18.60;99.90;;;;;;4916522;29;20056;-73
2023/07/04 11:01:50;;;;;;;1999.90;999.90;;;18.70;99.90;;;;;;4918659;29;20135;-79
2023/07/04 11:04:33;;;;;;;1999.90;999.90;;;18.70;99.90;;;;;;4901573;29;20048;-71
2023/07/04 11:07:02;;;;;;;;;;;18.70;99.90;;;;;;4919792;29;20381;-74
2023/07/04 11:09:40;;;;;;;1999.90;999.90;;;18.80;99.90;;;;;;4918712;29;20017;-76
2023/07/04 11:12:11;;;;;;;1999.90;999.90;;;18.80;99.90;;;;;;4918253;29;20380;-73
2023/07/04 11:14:40;;;;;;;1999.90;999.90;;;18.90;99.90;;;;;;4918017;29;20044;-70
2023/07/04 11:17:10;;;;;;;1999.90;999.90;;;18.90;99.90;;;;;;4918402;29;20048;-74
2023/07/04 11:20:14;;;;;;;1999.90;999.90;;;18.90;99.90;;;;;;4916899;29;20052;-75
2023/07/04 11:22:49;;;;;;;1999.90;999.90;;;18.90;99.90;;;;;;4918027;29;20139;-72
2023/07/04 11:25:29;;;;;;;1999.90;999.90;;;18.90;99.90;;;;;;4901453;29;20499;-78
2023/07/04 11:28:21;;;;;;;1999.90;999.90;;;19.00;99.90;;;;;;4918722;29;20088;-75
2023/07/04 11:30:49;;;;;;;1999.90;999.90;;;19.20;99.90;;;;;;4918414;29;20484;-76
2023/07/04 11:33:34;;;;;;;1999.90;999.90;;;19.20;99.90;;;;;;4917935;29;20041;-75
2023/07/04 11:36:06;;;;;;;1999.90;999.90;;;19.20;99.90;;;;;;4917839;29;20515;-75
2023/07/04 11:38:34;;;;;;;1999.90;999.90;;;19.20;99.90;;;;;;4901261;29;20139;-75
2023/07/04 11:41:01;;;;;;;1999.90;999.90;;;19.30;99.90;;;;;;4902096;29;20075;-74
2023/07/04 11:43:40;;;;;;;1999.90;999.90;;;19.40;99.90;;;;;;4917508;29;20048;-77
2023/07/04 11:46:07;;;;;;;1999.90;999.90;;;19.40;99.90;;;;;;4917020;29;20044;-76
2023/07/04 11:48:35;;;;;;;1999.90;999.90;;;19.40;99.90;;;;;;4916395;29;20071;-77
2023/07/04 11:51:04;;;;;;;1999.90;999.90;;;19.50;99.90;;;;;;4917908;29;20055;-75
2023/07/04 11:53:38;;;;;;;1999.90;999.90;;;19.50;99.90;;;;;;4916702;29;20052;-77
2023/07/04 11:56:32;;;;;;;1999.90;999.90;;;19.60;99.90;;;;;;4917658;29;20044;-78
2023/07/04 11:59:18;;;;;;;1999.90;999.90;;;19.60;99.90;;;;;;4901250;29;20079;-79
2023/07/04 12:01:55;;;;;;;1999.90;999.90;;;19.60;99.90;;;;;;4918617;29;20052;-80
2023/07/04 12:04:42;;;;;;;1999.90;999.90;;;19.70;99.90;;;;;;4900662;29;20480;-77
2023/07/04 12:07:10;;;;;;;1999.90;999.90;;;19.60;99.90;;;;;;4916932;29;20063;-81
2023/07/04 12:09:55;;;;;;;1999.90;999.90;;;19.60;99.90;;;;;;4916524;29;20087;-81
2023/07/04 12:12:24;;;;;;;1999.90;999.90;;;19.60;99.90;;;;;;4917340;29;20111;-80